sensor_id;sensor_type;location;lat;lon;timestamp;temperature;humidity
65036;DHT22;51603;49.300;8.880;2023-07-16T00:00:20;19.60;99.90
65036;DHT22;51603;49.300;8.880;2023-07-16T00:02:46;19.70;99.90
65036;DHT22;51603;49.300;8.880;2023-07-16T00:05:12;19.70;99.90
65036;DHT22;51603;49.300;8.880;2023-07-16T00:07:37;19.70;99.90
65036;DHT22;51603;49.300;8.880;2023-07-16T00:10:03;19.70;99.90
65036;DHT22;51603;49.300;8.880;2023-07-16T00:12:29;19.70;99.90
65036;DHT22;51603;49.300;8.880;2023-07-16T00:14:54;19.70;99.90
65036;DHT22;51603;49.300;8.880;2023-07-16T00:17:20;19.60;99.90
65036;DHT22;51603;49.300;8.880;2023-07-16T00:19:46;19.60;99.90
65036;DHT22;51603;49.300;8.880;2023-07-16T00:22:11;19.60;99.90
65036;DHT22;51603;49.300;8.880;2023-07-16T00:24:37;19.50;99.90
65036;DHT22;51603;49.300;8.880;2023-07-16T00:27:02;19.50;99.90
65036;DHT22;51603;49.300;8.880;2023-07-16T00:29:29;19.50;99.90
65036;DHT22;51603;49.300;8.880;2023-07-16T00:31:54;19.50;99.90
65036;DHT22;51603;49.300;8.880;2023-07-16T00:34:20;19.60;99.90
65036;DHT22;51603;49.300;8.880;2023-07-16T00:36:45;19.40;99.90
65036;DHT22;51603;49.300;8.880;2023-07-16T00:39:11;19.40;99.90
65036;DHT22;51603;49.300;8.880;2023-07-16T00:41:36;19.40;99.90
65036;DHT22;51603;49.300;8.880;2023-07-16T00:44:02;19.30;99.90
65036;DHT22;51603;49.300;8.880;2023-07-16T00:46:27;19.40;99.90
65036;DHT22;51603;49.300;8.880;2023-07-16T00:48:53;19.30;99.90
65036;DHT22;51603;49.300;8.880;2023-07-16T00:51:21;19.20;99.90
65036;DHT22;51603;49.300;8.880;2023-07-16T00:53:48;19.20;99.90
65036;DHT22;51603;49.300;8.880;2023-07-16T00:56:16;19.30;99.90
65036;DHT22;51603;49.300;8.880;2023-07-16T00:58:45;19.30;99.90
65036;DHT22;51603;49.300;8.880;2023-07-16T01:01:11;19.20;99.90
65036;DHT22;51603;49.300;8.880;2023-07-16T01:03:36;19.20;99.90
65036;DHT22;51603;49.300;8.880;2023-07-16T01:06:22;19.20;99.90
65036;DHT22;51603;49.300;8.880;2023-07-16T01:09:16;19.10;99.90
65036;DHT22;51603;49.300;8.880;2023-07-16T01:11:43;19.10;99.90
65036;DHT22;51603;49.300;8.880;2023-07-16T01:14:10;19.10;99.90
65036;DHT22;51603;49.300;8.880;2023-07-16T01:16:36;19.00;99.90
65036;DHT22;51603;49.300;8.880;2023-07-16T01:19:02;19.00;99.90
65036;DHT22;51603;49.300;8.880;2023-07-16T01:21:37;19.00;99.90
65036;DHT22;51603;49.300;8.880;2023-07-16T01:26:54;18.80;99.90
65036;DHT22;51603;49.300;8.880;2023-07-16T01:29:35;18.90;99.90
65036;DHT22;51603;49.300;8.880;2023-07-16T01:32:03;18.80;99.90
65036;DHT22;51603;49.300;8.880;2023-07-16T01:34:31;18.80;99.90
65036;DHT22;51603;49.300;8.880;2023-07-16T01:36:59;18.80;99.90
65036;DHT22;51603;49.300;8.880;2023-07-16T01:39:25;18.70;99.90
65036;DHT22;51603;49.300;8.880;2023-07-16T01:41:51;18.60;99.90
65036;DHT22;51603;49.300;8.880;2023-07-16T01:44:17;18.60;99.90
65036;DHT22;51603;49.300;8.880;2023-07-16T01:46:42;18.50;99.90
65036;DHT22;51603;49.300;8.880;2023-07-16T01:49:08;18.40;99.90
65036;DHT22;51603;49.300;8.880;2023-07-16T01:51:33;18.30;99.90
65036;DHT22;51603;49.300;8.880;2023-07-16T01:53:59;18.30;99.90
65036;DHT22;51603;49.300;8.880;2023-07-16T01:56:24;18.30;99.90
65036;DHT22;51603;49.300;8.880;2023-07-16T01:58:50;18.20;99.90
65036;DHT22;51603;49.300;8.880;2023-07-16T02:01:15;18.10;99.90
65036;DHT22;51603;49.300;8.880;2023-07-16T02:03:41;18.10;99.90
65036;DHT22;51603;49.300;8.880;2023-07-16T02:06:06;18.10;99.90
65036;DHT22;51603;49.300;8.880;2023-07-16T02:08:32;18.00;99.90
65036;DHT22;51603;49.300;8.880;2023-07-16T02:10:57;18.00;99.90
65036;DHT22;51603;49.300;8.880;2023-07-16T02:13:23;18.00;99.90
65036;DHT22;51603;49.300;8.880;2023-07-16T02:15:48;17.90;99.90
65036;DHT22;51603;49.300;8.880;2023-07-16T02:18:14;17.90;99.90
65036;DHT22;51603;49.300;8.880;2023-07-16T02:20:39;17.90;99.90
65036;DHT22;51603;49.300;8.880;2023-07-16T02:23:05;17.80;99.90
65036;DHT22;51603;49.300;8.880;2023-07-16T02:25:32;17.80;99.90
65036;DHT22;51603;49.300;8.880;2023-07-16T02:27:57;17.80;99.90
65036;DHT22;51603;49.300;8.880;2023-07-16T02:30:23;17.70;99.90
65036;DHT22;51603;49.300;8.880;2023-07-16T02:32:48;17.70;99.90
65036;DHT22;51603;49.300;8.880;2023-07-16T02:35:14;17.70;99.90
65036;DHT22;51603;49.300;8.880;2023-07-16T02:37:39;17.70;99.90
65036;DHT22;51603;49.300;8.880;2023-07-16T02:40:06;17.60;99.90
65036;DHT22;51603;49.300;8.880;2023-07-16T02:42:32;17.60;99.90
65036;DHT22;51603;49.300;8.880;2023-07-16T02:44:57;17.60;99.90
65036;DHT22;51603;49.300;8.880;2023-07-16T02:47:23;17.60;99.90
65036;DHT22;51603;49.300;8.880;2023-07-16T02:49:51;17.60;99.90
65036;DHT22;51603;49.300;8.880;2023-07-16T02:52:17;17.50;99.90
65036;DHT22;51603;49.300;8.880;2023-07-16T02:54:42;17.50;99.90
65036;DHT22;51603;49.300;8.880;2023-07-16T02:57:08;17.50;99.90
65036;DHT22;51603;49.300;8.880;2023-07-16T02:59:34;17.60;99.90
65036;DHT22;51603;49.300;8.880;2023-07-16T03:01:59;17.50;99.90
65036;DHT22;51603;49.300;8.880;2023-07-16T03:04:24;17.50;99.90
65036;DHT22;51603;49.300;8.880;2023-07-16T03:06:50;17.50;99.90
65036;DHT22;51603;49.300;8.880;2023-07-16T03:09:15;17.50;99.90
65036;DHT22;51603;49.300;8.880;2023-07-16T03:11:41;17.50;99.90
65036;DHT22;51603;49.300;8.880;2023-07-16T03:14:06;17.40;99.90
65036;DHT22;51603;49.300;8.880;2023-07-16T03:16:32;17.50;99.90
65036;DHT22;51603;49.300;8.880;2023-07-16T03:18:57;17.40;99.90
65036;DHT22;51603;49.300;8.880;2023-07-16T03:21:23;17.40;99.90
65036;DHT22;51603;49.300;8.880;2023-07-16T03:23:48;17.40;99.90
65036;DHT22;51603;49.300;8.880;2023-07-16T03:26:14;17.50;99.90
65036;DHT22;51603;49.300;8.880;2023-07-16T03:28:39;17.50;99.90
65036;DHT22;51603;49.300;8.880;2023-07-16T03:31:05;17.50;99.90
65036;DHT22;51603;49.300;8.880;2023-07-16T03:33:30;17.40;99.90
65036;DHT22;51603;49.300;8.880;2023-07-16T03:35:56;17.40;99.90
65036;DHT22;51603;49.300;8.880;2023-07-16T03:38:21;17.40;99.90
65036;DHT22;51603;49.300;8.880;2023-07-16T03:40:48;17.40;99.90
65036;DHT22;51603;49.300;8.880;2023-07-16T03:43:15;17.40;99.90
65036;DHT22;51603;49.300;8.880;2023-07-16T03:45:41;17.50;99.90
65036;DHT22;51603;49.300;8.880;2023-07-16T03:48:06;17.40;99.90
65036;DHT22;51603;49.300;8.880;2023-07-16T03:50:32;17.50;99.90
65036;DHT22;51603;49.300;8.880;2023-07-16T03:52:57;17.50;99.90
65036;DHT22;51603;49.300;8.880;2023-07-16T03:55:23;17.50;99.90
65036;DHT22;51603;49.300;8.880;2023-07-16T03:57:48;17.50;99.90
65036;DHT22;51603;49.300;8.880;2023-07-16T04:14:01;17.50;99.90
65036;DHT22;51603;49.300;8.880;2023-07-16T04:16:27;17.60;99.90
65036;DHT22;51603;49.300;8.880;2023-07-16T04:18:52;17.60;99.90
65036;DHT22;51603;49.300;8.880;2023-07-16T04:21:18;17.50;99.90
65036;DHT22;51603;49.300;8.880;2023-07-16T04:23:43;17.50;99.90
65036;DHT22;51603;49.300;8.880;2023-07-16T04:26:09;17.50;99.90
65036;DHT22;51603;49.300;8.880;2023-07-16T04:28:34;17.40;99.90
65036;DHT22;51603;49.300;8.880;2023-07-16T04:31:00;17.40;99.90
65036;DHT22;51603;49.300;8.880;2023-07-16T04:33:25;17.40;99.90
65036;DHT22;51603;49.300;8.880;2023-07-16T04:35:51;17.40;99.90
65036;DHT22;51603;49.300;8.880;2023-07-16T04:38:16;17.30;99.90
65036;DHT22;51603;49.300;8.880;2023-07-16T04:40:42;17.30;99.90
65036;DHT22;51603;49.300;8.880;2023-07-16T04:43:08;17.40;99.90
65036;DHT22;51603;49.300;8.880;2023-07-16T04:45:34;17.30;99.90
65036;DHT22;51603;49.300;8.880;2023-07-16T04:48:00;17.30;99.90
65036;DHT22;51603;49.300;8.880;2023-07-16T04:50:25;17.30;99.90
65036;DHT22;51603;49.300;8.880;2023-07-16T04:52:51;17.30;99.90
65036;DHT22;51603;49.300;8.880;2023-07-16T04:55:16;17.30;99.90
65036;DHT22;51603;49.300;8.880;2023-07-16T04:57:42;17.30;99.90
65036;DHT22;51603;49.300;8.880;2023-07-16T05:00:07;17.30;99.90
65036;DHT22;51603;49.300;8.880;2023-07-16T05:02:33;17.30;99.90
65036;DHT22;51603;49.300;8.880;2023-07-16T05:04:59;17.30;99.90
65036;DHT22;51603;49.300;8.880;2023-07-16T05:07:24;17.30;99.90
65036;DHT22;51603;49.300;8.880;2023-07-16T05:09:50;17.30;99.90
65036;DHT22;51603;49.300;8.880;2023-07-16T05:12:15;17.30;99.90
65036;DHT22;51603;49.300;8.880;2023-07-16T05:14:45;17.20;99.90
65036;DHT22;51603;49.300;8.880;2023-07-16T05:17:11;17.20;99.90
65036;DHT22;51603;49.300;8.880;2023-07-16T05:19:37;17.10;99.90
65036;DHT22;51603;49.300;8.880;2023-07-16T05:22:02;17.20;99.90
65036;DHT22;51603;49.300;8.880;2023-07-16T05:24:28;17.20;99.90
65036;DHT22;51603;49.300;8.880;2023-07-16T05:26:53;17.20;99.90
65036;DHT22;51603;49.300;8.880;2023-07-16T05:29:19;17.20;99.90
65036;DHT22;51603;49.300;8.880;2023-07-16T05:31:45;17.20;99.90
65036;DHT22;51603;49.300;8.880;2023-07-16T05:34:12;17.30;99.90
65036;DHT22;51603;49.300;8.880;2023-07-16T05:36:38;17.30;99.90
65036;DHT22;51603;49.300;8.880;2023-07-16T05:39:03;17.30;99.90
65036;DHT22;51603;49.300;8.880;2023-07-16T05:41:29;17.30;99.90
65036;DHT22;51603;49.300;8.880;2023-07-16T05:43:54;17.50;99.90
65036;DHT22;51603;49.300;8.880;2023-07-16T05:46:20;17.50;99.90
65036;DHT22;51603;49.300;8.880;2023-07-16T05:48:45;17.50;99.90
65036;DHT22;51603;49.300;8.880;2023-07-16T05:51:11;17.60;99.90
65036;DHT22;51603;49.300;8.880;2023-07-16T05:53:36;17.60;99.90
65036;DHT22;51603;49.300;8.880;2023-07-16T05:56:02;17.70;99.90
65036;DHT22;51603;49.300;8.880;2023-07-16T06:12:06;17.60;99.90
65036;DHT22;51603;49.300;8.880;2023-07-16T06:14:32;17.90;99.90
65036;DHT22;51603;49.300;8.880;2023-07-16T06:16:58;17.90;99.90
65036;DHT22;51603;49.300;8.880;2023-07-16T06:19:23;17.90;99.90
65036;DHT22;51603;49.300;8.880;2023-07-16T06:21:49;17.90;99.90
65036;DHT22;51603;49.300;8.880;2023-07-16T06:24:14;17.80;99.90
65036;DHT22;51603;49.300;8.880;2023-07-16T06:26:40;17.80;99.90
65036;DHT22;51603;49.300;8.880;2023-07-16T06:29:05;17.80;99.90
65036;DHT22;51603;49.300;8.880;2023-07-16T06:31:31;17.70;99.90
65036;DHT22;51603;49.300;8.880;2023-07-16T06:33:56;17.70;99.90
65036;DHT22;51603;49.300;8.880;2023-07-16T06:36:22;17.70;99.90
65036;DHT22;51603;49.300;8.880;2023-07-16T06:38:47;17.80;99.90
65036;DHT22;51603;49.300;8.880;2023-07-16T06:41:13;17.90;99.90
65036;DHT22;51603;49.300;8.880;2023-07-16T06:43:38;17.90;99.90
65036;DHT22;51603;49.300;8.880;2023-07-16T06:46:04;18.00;99.90
65036;DHT22;51603;49.300;8.880;2023-07-16T06:48:29;18.00;99.90
65036;DHT22;51603;49.300;8.880;2023-07-16T06:50:55;18.00;99.90
65036;DHT22;51603;49.300;8.880;2023-07-16T06:53:20;18.10;99.90
65036;DHT22;51603;49.300;8.880;2023-07-16T06:55:47;18.10;99.90
65036;DHT22;51603;49.300;8.880;2023-07-16T06:58:14;18.20;99.90
65036;DHT22;51603;49.300;8.880;2023-07-16T07:00:40;18.20;99.90
65036;DHT22;51603;49.300;8.880;2023-07-16T07:03:06;18.30;99.90
65036;DHT22;51603;49.300;8.880;2023-07-16T07:05:31;18.40;99.90
65036;DHT22;51603;49.300;8.880;2023-07-16T07:07:57;18.60;99.90
65036;DHT22;51603;49.300;8.880;2023-07-16T07:10:22;18.80;99.90
65036;DHT22;51603;49.300;8.880;2023-07-16T07:12:48;18.90;99.90
65036;DHT22;51603;49.300;8.880;2023-07-16T07:15:13;19.00;99.90
65036;DHT22;51603;49.300;8.880;2023-07-16T07:17:39;19.10;99.90
65036;DHT22;51603;49.300;8.880;2023-07-16T07:20:05;19.20;99.90
65036;DHT22;51603;49.300;8.880;2023-07-16T07:22:32;19.10;99.90
65036;DHT22;51603;49.300;8.880;2023-07-16T07:24:57;19.10;99.90
65036;DHT22;51603;49.300;8.880;2023-07-16T07:27:23;19.10;99.90
65036;DHT22;51603;49.300;8.880;2023-07-16T07:29:49;19.20;99.90
65036;DHT22;51603;49.300;8.880;2023-07-16T07:32:20;19.30;99.90
65036;DHT22;51603;49.300;8.880;2023-07-16T07:34:46;19.30;99.90
65036;DHT22;51603;49.300;8.880;2023-07-16T07:37:11;19.30;99.90
65036;DHT22;51603;49.300;8.880;2023-07-16T07:39:37;19.40;99.90
65036;DHT22;51603;49.300;8.880;2023-07-16T07:42:03;19.30;99.90
65036;DHT22;51603;49.300;8.880;2023-07-16T07:44:28;19.30;99.90
65036;DHT22;51603;49.300;8.880;2023-07-16T07:46:54;19.30;99.90
65036;DHT22;51603;49.300;8.880;2023-07-16T07:49:19;19.30;99.90
65036;DHT22;51603;49.300;8.880;2023-07-16T07:51:45;19.20;99.90
65036;DHT22;51603;49.300;8.880;2023-07-16T07:54:11;19.30;99.90
65036;DHT22;51603;49.300;8.880;2023-07-16T07:56:36;19.30;99.90
65036;DHT22;51603;49.300;8.880;2023-07-16T07:59:02;19.30;99.90
65036;DHT22;51603;49.300;8.880;2023-07-16T08:01:27;19.30;99.90
65036;DHT22;51603;49.300;8.880;2023-07-16T08:03:54;19.30;99.90
65036;DHT22;51603;49.300;8.880;2023-07-16T08:06:20;19.40;99.90
65036;DHT22;51603;49.300;8.880;2023-07-16T08:08:45;19.40;99.90
65036;DHT22;51603;49.300;8.880;2023-07-16T08:11:11;19.50;99.90
65036;DHT22;51603;49.300;8.880;2023-07-16T08:13:36;19.70;99.90
65036;DHT22;51603;49.300;8.880;2023-07-16T08:16:02;19.70;99.90
65036;DHT22;51603;49.300;8.880;2023-07-16T08:18:27;19.80;99.90
65036;DHT22;51603;49.300;8.880;2023-07-16T08:20:53;20.00;99.90
65036;DHT22;51603;49.300;8.880;2023-07-16T08:23:18;20.00;99.90
65036;DHT22;51603;49.300;8.880;2023-07-16T08:25:44;20.00;99.90
65036;DHT22;51603;49.300;8.880;2023-07-16T08:28:09;20.10;99.90
65036;DHT22;51603;49.300;8.880;2023-07-16T08:30:36;20.20;99.90
65036;DHT22;51603;49.300;8.880;2023-07-16T08:33:02;20.30;99.90
65036;DHT22;51603;49.300;8.880;2023-07-16T08:35:28;20.40;99.90
65036;DHT22;51603;49.300;8.880;2023-07-16T08:37:53;20.60;99.90
65036;DHT22;51603;49.300;8.880;2023-07-16T08:40:19;20.80;99.90
65036;DHT22;51603;49.300;8.880;2023-07-16T08:42:46;21.10;99.90
65036;DHT22;51603;49.300;8.880;2023-07-16T08:45:11;21.20;99.90
65036;DHT22;51603;49.300;8.880;2023-07-16T08:47:37;21.10;99.90
65036;DHT22;51603;49.300;8.880;2023-07-16T08:50:03;21.00;99.90
65036;DHT22;51603;49.300;8.880;2023-07-16T08:52:29;21.00;99.90
65036;DHT22;51603;49.300;8.880;2023-07-16T08:54:55;20.90;99.90
65036;DHT22;51603;49.300;8.880;2023-07-16T08:57:21;20.80;99.90
65036;DHT22;51603;49.300;8.880;2023-07-16T08:59:51;20.70;99.90
65036;DHT22;51603;49.300;8.880;2023-07-16T09:02:20;20.70;99.90
65036;DHT22;51603;49.300;8.880;2023-07-16T09:04:49;20.50;99.90
65036;DHT22;51603;49.300;8.880;2023-07-16T09:07:16;20.40;99.90
65036;DHT22;51603;49.300;8.880;2023-07-16T09:09:42;20.40;99.90
65036;DHT22;51603;49.300;8.880;2023-07-16T09:12:12;20.40;99.90
65036;DHT22;51603;49.300;8.880;2023-07-16T09:14:37;20.50;99.90
65036;DHT22;51603;49.300;8.880;2023-07-16T09:17:03;20.70;99.90
65036;DHT22;51603;49.300;8.880;2023-07-16T09:19:32;20.80;99.90
65036;DHT22;51603;49.300;8.880;2023-07-16T09:21:58;20.70;99.90
65036;DHT22;51603;49.300;8.880;2023-07-16T09:24:23;20.80;99.90
65036;DHT22;51603;49.300;8.880;2023-07-16T09:26:50;20.90;99.90
65036;DHT22;51603;49.300;8.880;2023-07-16T09:29:16;21.10;99.90
65036;DHT22;51603;49.300;8.880;2023-07-16T09:31:55;21.10;99.90
65036;DHT22;51603;49.300;8.880;2023-07-16T09:34:21;21.10;99.90
65036;DHT22;51603;49.300;8.880;2023-07-16T09:36:48;21.10;99.90
65036;DHT22;51603;49.300;8.880;2023-07-16T09:39:16;21.20;99.90
65036;DHT22;51603;49.300;8.880;2023-07-16T09:41:42;21.00;99.90
65036;DHT22;51603;49.300;8.880;2023-07-16T09:44:09;21.10;99.90
65036;DHT22;51603;49.300;8.880;2023-07-16T09:46:35;21.30;99.90
65036;DHT22;51603;49.300;8.880;2023-07-16T09:49:00;21.50;99.90
65036;DHT22;51603;49.300;8.880;2023-07-16T09:51:27;21.80;99.90
65036;DHT22;51603;49.300;8.880;2023-07-16T09:53:55;21.80;99.90
65036;DHT22;51603;49.300;8.880;2023-07-16T09:56:24;21.80;99.90
65036;DHT22;51603;49.300;8.880;2023-07-16T09:58:53;21.80;99.90
65036;DHT22;51603;49.300;8.880;2023-07-16T10:01:18;21.90;99.90
65036;DHT22;51603;49.300;8.880;2023-07-16T10:03:50;21.80;99.90
65036;DHT22;51603;49.300;8.880;2023-07-16T10:06:17;21.80;99.90
65036;DHT22;51603;49.300;8.880;2023-07-16T10:08:49;21.70;99.90
65036;DHT22;51603;49.300;8.880;2023-07-16T10:11:18;21.70;99.90
65036;DHT22;51603;49.300;8.880;2023-07-16T10:13:49;21.90;99.80
65036;DHT22;51603;49.300;8.880;2023-07-16T10:16:22;22.10;98.50
65036;DHT22;51603;49.300;8.880;2023-07-16T10:18:52;22.30;97.00
65036;DHT22;51603;49.300;8.880;2023-07-16T10:21:24;22.30;96.30
65036;DHT22;51603;49.300;8.880;2023-07-16T10:23:57;22.40;96.30
65036;DHT22;51603;49.300;8.880;2023-07-16T10:26:27;22.50;96.10
65036;DHT22;51603;49.300;8.880;2023-07-16T10:28:54;22.60;96.30
65036;DHT22;51603;49.300;8.880;2023-07-16T10:31:21;22.90;97.40
65036;DHT22;51603;49.300;8.880;2023-07-16T10:34:04;23.10;94.90
65036;DHT22;51603;49.300;8.880;2023-07-16T10:36:40;23.10;94.50
65036;DHT22;51603;49.300;8.880;2023-07-16T10:39:06;23.20;94.90
65036;DHT22;51603;49.300;8.880;2023-07-16T10:41:32;23.30;94.60
65036;DHT22;51603;49.300;8.880;2023-07-16T10:44:00;23.20;94.10
65036;DHT22;51603;49.300;8.880;2023-07-16T10:46:27;23.10;93.60
65036;DHT22;51603;49.300;8.880;2023-07-16T10:48:52;22.80;94.50
65036;DHT22;51603;49.300;8.880;2023-07-16T10:51:25;22.90;93.70
65036;DHT22;51603;49.300;8.880;2023-07-16T10:53:51;23.00;92.40
65036;DHT22;51603;49.300;8.880;2023-07-16T10:56:17;23.10;93.20
65036;DHT22;51603;49.300;8.880;2023-07-16T10:58:45;23.10;92.70
65036;DHT22;51603;49.300;8.880;2023-07-16T11:01:10;23.20;92.40
65036;DHT22;51603;49.300;8.880;2023-07-16T11:03:36;23.20;91.40
65036;DHT22;51603;49.300;8.880;2023-07-16T11:06:09;23.40;90.60
65036;DHT22;51603;49.300;8.880;2023-07-16T11:08:35;23.50;89.70
65036;DHT22;51603;49.300;8.880;2023-07-16T11:11:00;23.70;88.00
65036;DHT22;51603;49.300;8.880;2023-07-16T11:13:31;24.00;89.20
65036;DHT22;51603;49.300;8.880;2023-07-16T11:15:57;24.20;85.80
65036;DHT22;51603;49.300;8.880;2023-07-16T11:18:23;24.30;85.70
65036;DHT22;51603;49.300;8.880;2023-07-16T11:20:53;24.40;86.00
65036;DHT22;51603;49.300;8.880;2023-07-16T11:23:40;24.40;82.80
65036;DHT22;51603;49.300;8.880;2023-07-16T11:26:05;24.60;81.00
65036;DHT22;51603;49.300;8.880;2023-07-16T11:28:41;24.60;82.50
65036;DHT22;51603;49.300;8.880;2023-07-16T11:31:16;24.40;81.40
65036;DHT22;51603;49.300;8.880;2023-07-16T11:33:45;24.50;80.40
65036;DHT22;51603;49.300;8.880;2023-07-16T11:36:11;24.30;78.20
65036;DHT22;51603;49.300;8.880;2023-07-16T11:38:38;24.40;81.40
65036;DHT22;51603;49.300;8.880;2023-07-16T12:29:44;24.50;73.10
65036;DHT22;51603;49.300;8.880;2023-07-16T12:32:10;24.60;72.60
65036;DHT22;51603;49.300;8.880;2023-07-16T12:42:31;24.20;75.30
65036;DHT22;51603;49.300;8.880;2023-07-16T12:44:56;24.50;75.80
65036;DHT22;51603;49.300;8.880;2023-07-16T12:47:22;25.00;75.80
65036;DHT22;51603;49.300;8.880;2023-07-16T12:49:47;25.20;72.60
65036;DHT22;51603;49.300;8.880;2023-07-16T12:52:13;25.10;70.80
65036;DHT22;51603;49.300;8.880;2023-07-16T12:54:38;25.20;71.70
65036;DHT22;51603;49.300;8.880;2023-07-16T12:59:39;25.40;68.30
65036;DHT22;51603;49.300;8.880;2023-07-16T13:02:05;25.50;67.60
65036;DHT22;51603;49.300;8.880;2023-07-16T13:04:31;25.70;70.70
65036;DHT22;51603;49.300;8.880;2023-07-16T13:06:57;25.60;68.00
65036;DHT22;51603;49.300;8.880;2023-07-16T13:09:22;25.30;65.60
65036;DHT22;51603;49.300;8.880;2023-07-16T13:11:48;25.50;68.00
65036;DHT22;51603;49.300;8.880;2023-07-16T13:14:13;25.30;65.10
65036;DHT22;51603;49.300;8.880;2023-07-16T13:16:39;25.50;66.40
65036;DHT22;51603;49.300;8.880;2023-07-16T13:19:05;25.50;66.00
65036;DHT22;51603;49.300;8.880;2023-07-16T13:21:30;25.40;66.60
65036;DHT22;51603;49.300;8.880;2023-07-16T13:23:56;25.40;68.20
65036;DHT22;51603;49.300;8.880;2023-07-16T13:26:21;25.60;68.50
65036;DHT22;51603;49.300;8.880;2023-07-16T13:28:47;25.40;64.20
65036;DHT22;51603;49.300;8.880;2023-07-16T13:31:12;25.30;65.30
65036;DHT22;51603;49.300;8.880;2023-07-16T13:33:38;25.30;65.00
65036;DHT22;51603;49.300;8.880;2023-07-16T13:36:05;25.50;64.50
65036;DHT22;51603;49.300;8.880;2023-07-16T13:38:31;25.40;66.10
65036;DHT22;51603;49.300;8.880;2023-07-16T13:40:56;25.50;66.50
65036;DHT22;51603;49.300;8.880;2023-07-16T13:43:22;25.40;66.30
65036;DHT22;51603;49.300;8.880;2023-07-16T13:45:48;25.70;66.00
65036;DHT22;51603;49.300;8.880;2023-07-16T13:48:13;25.90;66.60
65036;DHT22;51603;49.300;8.880;2023-07-16T13:50:39;26.10;66.50
65036;DHT22;51603;49.300;8.880;2023-07-16T13:53:04;26.30;65.30
65036;DHT22;51603;49.300;8.880;2023-07-16T13:55:30;25.90;63.90
65036;DHT22;51603;49.300;8.880;2023-07-16T13:57:55;26.00;61.50
65036;DHT22;51603;49.300;8.880;2023-07-16T14:00:22;26.20;65.50
65036;DHT22;51603;49.300;8.880;2023-07-16T14:02:48;26.20;59.80
65036;DHT22;51603;49.300;8.880;2023-07-16T14:05:13;26.20;60.70
65036;DHT22;51603;49.300;8.880;2023-07-16T14:07:39;26.10;60.90
65036;DHT22;51603;49.300;8.880;2023-07-16T14:10:05;25.90;60.60
65036;DHT22;51603;49.300;8.880;2023-07-16T14:12:31;25.70;60.70
65036;DHT22;51603;49.300;8.880;2023-07-16T14:14:56;25.80;60.80
65036;DHT22;51603;49.300;8.880;2023-07-16T14:17:22;25.90;60.70
65036;DHT22;51603;49.300;8.880;2023-07-16T14:19:49;26.00;61.10
65036;DHT22;51603;49.300;8.880;2023-07-16T14:22:14;26.10;60.90
65036;DHT22;51603;49.300;8.880;2023-07-16T14:24:41;26.30;60.50
65036;DHT22;51603;49.300;8.880;2023-07-16T14:27:07;26.40;61.70
65036;DHT22;51603;49.300;8.880;2023-07-16T14:29:34;26.30;60.20
65036;DHT22;51603;49.300;8.880;2023-07-16T14:32:00;26.40;62.90
65036;DHT22;51603;49.300;8.880;2023-07-16T14:34:26;26.70;62.10
65036;DHT22;51603;49.300;8.880;2023-07-16T14:36:52;26.80;59.50
65036;DHT22;51603;49.300;8.880;2023-07-16T14:39:18;26.60;59.90
65036;DHT22;51603;49.300;8.880;2023-07-16T14:41:44;26.70;58.90
65036;DHT22;51603;49.300;8.880;2023-07-16T14:44:10;26.70;58.40
65036;DHT22;51603;49.300;8.880;2023-07-16T14:46:36;26.80;59.70
65036;DHT22;51603;49.300;8.880;2023-07-16T14:49:03;26.80;59.20
65036;DHT22;51603;49.300;8.880;2023-07-16T14:51:28;26.70;58.60
65036;DHT22;51603;49.300;8.880;2023-07-16T14:53:55;26.50;58.10
65036;DHT22;51603;49.300;8.880;2023-07-16T14:56:21;26.40;59.00
65036;DHT22;51603;49.300;8.880;2023-07-16T14:58:47;26.60;59.40
65036;DHT22;51603;49.300;8.880;2023-07-16T15:01:13;26.60;58.00
65036;DHT22;51603;49.300;8.880;2023-07-16T15:03:39;26.30;58.70
65036;DHT22;51603;49.300;8.880;2023-07-16T15:06:06;26.30;58.30
65036;DHT22;51603;49.300;8.880;2023-07-16T15:08:32;26.30;58.30
65036;DHT22;51603;49.300;8.880;2023-07-16T15:10:58;26.40;59.10
65036;DHT22;51603;49.300;8.880;2023-07-16T15:13:24;26.60;57.20
65036;DHT22;51603;49.300;8.880;2023-07-16T15:15:51;26.70;57.10
65036;DHT22;51603;49.300;8.880;2023-07-16T15:18:19;26.70;56.30
65036;DHT22;51603;49.300;8.880;2023-07-16T15:20:45;26.40;56.70
65036;DHT22;51603;49.300;8.880;2023-07-16T15:23:11;26.20;58.30
65036;DHT22;51603;49.300;8.880;2023-07-16T15:25:37;26.40;59.20
65036;DHT22;51603;49.300;8.880;2023-07-16T15:28:02;26.50;58.10
65036;DHT22;51603;49.300;8.880;2023-07-16T15:30:28;26.40;57.10
65036;DHT22;51603;49.300;8.880;2023-07-16T15:32:54;26.50;58.00
65036;DHT22;51603;49.300;8.880;2023-07-16T15:35:19;26.80;58.40
65036;DHT22;51603;49.300;8.880;2023-07-16T15:37:45;26.60;56.30
65036;DHT22;51603;49.300;8.880;2023-07-16T15:40:16;26.50;56.80
65036;DHT22;51603;49.300;8.880;2023-07-16T15:42:42;26.50;57.50
65036;DHT22;51603;49.300;8.880;2023-07-16T15:45:12;26.50;55.70
65036;DHT22;51603;49.300;8.880;2023-07-16T15:47:43;26.60;56.50
65036;DHT22;51603;49.300;8.880;2023-07-16T15:50:09;26.70;55.80
65036;DHT22;51603;49.300;8.880;2023-07-16T15:52:35;26.70;57.50
65036;DHT22;51603;49.300;8.880;2023-07-16T15:55:01;26.70;56.70
65036;DHT22;51603;49.300;8.880;2023-07-16T15:57:27;26.70;56.50
65036;DHT22;51603;49.300;8.880;2023-07-16T15:59:52;26.90;56.40
65036;DHT22;51603;49.300;8.880;2023-07-16T16:02:18;27.00;55.60
65036;DHT22;51603;49.300;8.880;2023-07-16T16:04:44;27.00;55.20
65036;DHT22;51603;49.300;8.880;2023-07-16T16:07:09;27.10;55.90
65036;DHT22;51603;49.300;8.880;2023-07-16T16:09:36;27.20;54.30
65036;DHT22;51603;49.300;8.880;2023-07-16T16:12:02;26.90;54.30
65036;DHT22;51603;49.300;8.880;2023-07-16T16:14:29;26.80;55.00
65036;DHT22;51603;49.300;8.880;2023-07-16T16:16:54;26.70;56.00
65036;DHT22;51603;49.300;8.880;2023-07-16T16:19:23;26.90;54.60
65036;DHT22;51603;49.300;8.880;2023-07-16T16:21:49;26.90;55.80
65036;DHT22;51603;49.300;8.880;2023-07-16T16:24:14;26.90;55.30
65036;DHT22;51603;49.300;8.880;2023-07-16T16:26:40;27.00;56.90
65036;DHT22;51603;49.300;8.880;2023-07-16T16:29:06;26.80;55.50
65036;DHT22;51603;49.300;8.880;2023-07-16T16:31:32;26.70;55.80
65036;DHT22;51603;49.300;8.880;2023-07-16T16:33:57;26.60;56.20
65036;DHT22;51603;49.300;8.880;2023-07-16T16:36:23;26.10;56.10
65036;DHT22;51603;49.300;8.880;2023-07-16T16:38:48;25.80;57.20
65036;DHT22;51603;49.300;8.880;2023-07-16T16:41:14;25.80;58.60
65036;DHT22;51603;49.300;8.880;2023-07-16T16:43:40;25.90;57.20
65036;DHT22;51603;49.300;8.880;2023-07-16T16:46:05;26.20;56.80
65036;DHT22;51603;49.300;8.880;2023-07-16T16:48:31;26.10;57.50
65036;DHT22;51603;49.300;8.880;2023-07-16T16:51:00;26.20;56.10
65036;DHT22;51603;49.300;8.880;2023-07-16T16:53:26;26.10;56.10